Time;durP1;ratioP1;P1;durP2;ratioP2;P2;SDS_P1;SDS_P2;PMS_P1;PMS_P2;Temp;Humidity;BMP_temperature;BMP_pressure;BME280_temperature;BME280_humidity;BME280_pressure;Samples;Min_cycle;Max_cycle;Signal;HPM_P1;HPM_P2
2022/05/23 00:01:44;;;;;;;8.93;7.03;;;4.90;99.90;3.90;100187;;;;599175;235;24074;-78
2022/05/23 00:04:12;;;;;;;9.50;6.90;;;4.90;99.90;3.90;100185;;;;599259;240;24069;-82
2022/05/23 00:06:43;;;;;;;11.13;7.27;;;4.80;99.90;3.90;100179;;;;598770;238;24042;-85
2022/05/23 00:09:11;;;;;;;10.67;7.13;;;4.80;99.90;3.90;100182;;;;598880;235;24034;-78
2022/05/23 00:11:39;;;;;;;10.90;6.50;;;4.80;99.90;3.90;100179;;;;599118;238;24043;-81
2022/05/23 00:14:10;;;;;;;8.80;6.43;;;4.80;99.90;3.90;100185;;;;600616;234;24089;-82
2022/05/23 00:16:37;;;;;;;9.77;7.37;;;4.80;99.90;3.90;100179;;;;599659;238;24031;-81
2022/05/23 00:19:05;;;;;;;10.90;7.53;;;4.80;99.90;4.00;100172;;;;600208;236;24055;-80
2022/05/23 00:21:33;;;;;;;9.83;7.10;;;4.90;99.90;4.00;100181;;;;599789;234;25093;-76
2022/05/23 00:24:03;;;;;;;8.23;6.80;;;4.90;99.90;4.00;100171;;;;599909;239;24056;-79
2022/05/23 00:26:31;;;;;;;9.57;6.70;;;4.90;99.90;4.00;100174;;;;599438;240;24069;-75
2022/05/23 00:29:03;;;;;;;8.57;7.00;;;4.90;99.90;4.00;100186;;;;599891;235;24061;-75
2022/05/23 00:31:31;;;;;;;8.30;6.60;;;4.90;99.90;3.90;100186;;;;598605;240;24134;-77
2022/05/23 00:36:45;;;;;;;10.90;7.30;;;4.90;99.90;3.90;100170;;;;599156;240;24038;-79
2022/05/23 00:39:10;;;;;;;9.20;7.23;;;4.80;99.90;3.90;100176;;;;598802;240;24045;-76
2022/05/23 00:44:30;;;;;;;7.87;7.07;;;4.90;99.90;3.90;100180;;;;593172;242;24051;-76
2022/05/23 00:47:18;;;;;;;10.97;6.80;;;4.80;99.90;3.90;100175;;;;592481;242;24043;-76
2022/05/23 00:49:46;;;;;;;6.80;6.10;;;4.90;99.90;3.90;100174;;;;598157;239;24106;-75
2022/05/23 00:52:14;;;;;;;7.73;6.40;;;4.90;99.90;4.00;100172;;;;593561;238;34974;-76
2022/05/23 00:54:44;;;;;;;6.40;4.23;;;4.90;99.90;4.00;100179;;;;597306;240;25374;-75
2022/05/23 00:57:21;;;;;;;7.97;4.50;;;4.90;99.90;4.00;100173;;;;598032;240;24082;-75
2022/05/23 00:59:52;;;;;;;5.57;4.40;;;4.90;99.90;4.00;100166;;;;597999;240;24089;-75
2022/05/23 01:02:17;;;;;;;6.37;5.60;;;4.90;99.90;4.00;100166;;;;598192;239;24076;-75
2022/05/23 01:04:48;;;;;;;7.83;6.20;;;4.90;99.90;4.00;100171;;;;597703;240;24059;-76
2022/05/23 01:07:13;;;;;;;8.10;6.20;;;5.00;99.90;4.10;100170;;;;597854;239;24057;-75
2022/05/23 01:09:40;;;;;;;7.63;6.83;;;5.00;99.90;4.00;100165;;;;597891;239;24041;-75
2022/05/23 01:12:08;;;;;;;9.20;6.63;;;5.00;99.90;4.00;100164;;;;598003;238;24060;-76
2022/05/23 01:14:56;;;;;;;8.67;6.43;;;4.90;99.90;4.00;100163;;;;580812;245;24136;-75
2022/05/23 01:17:23;;;;;;;8.67;6.83;;;4.90;99.90;3.90;100171;;;;597604;240;24063;-75
2022/05/23 01:19:54;;;;;;;8.23;7.03;;;4.90;99.90;3.90;100176;;;;597459;238;24045;-76
2022/05/23 01:22:52;;;;;;;10.50;6.97;;;4.90;99.90;4.00;100184;;;;597580;240;24034;-76
2022/05/23 01:25:23;;;;;;;11.10;6.87;;;4.90;99.90;4.00;100181;;;;598856;239;24065;-76
2022/05/23 01:27:55;;;;;;;7.53;6.83;;;4.90;99.90;4.00;100185;;;;598022;240;24046;-77
2022/05/23 01:30:23;;;;;;;7.63;6.83;;;4.90;99.90;4.10;100191;;;;598435;240;24049;-76
2022/05/23 01:32:48;;;;;;;8.00;7.20;;;5.00;99.90;4.10;100189;;;;598284;240;24081;-76
2022/05/23 01:35:16;;;;;;;8.23;7.30;;;4.90;99.90;4.00;100176;;;;598812;240;24033;-76
2022/05/23 01:37:44;;;;;;;9.63;7.40;;;4.90;99.90;4.10;100179;;;;598548;235;24053;-76
2022/05/23 01:40:12;;;;;;;9.20;7.97;;;5.00;99.90;4.00;100176;;;;575109;250;24095;-78
2022/05/23 01:42:40;;;;;;;9.10;7.23;;;4.90;99.90;4.00;100175;;;;598039;240;24063;-77
2022/05/23 01:45:12;;;;;;;8.00;7.20;;;5.00;99.90;4.00;100182;;;;598915;238;24082;-75
2022/05/23 01:47:39;;;;;;;8.23;7.33;;;4.90;99.90;4.00;100182;;;;597748;240;24057;-75
2022/05/23 01:50:07;;;;;;;11.00;7.90;;;4.90;99.90;4.00;100175;;;;598052;240;24052;-75
2022/05/23 01:52:32;;;;;;;10.07;8.37;;;4.90;99.90;4.00;100177;;;;598385;240;24055;-76
2022/05/23 01:55:00;;;;;;;8.17;7.37;;;4.90;99.90;4.00;100181;;;;598526;240;24063;-76
2022/05/23 01:57:27;;;;;;;9.77;7.90;;;4.90;99.90;4.10;100178;;;;598975;240;24088;-76
2022/05/23 02:02:44;;;;;;;12.63;7.70;;;5.00;99.90;4.00;100179;;;;597986;240;24060;-76
2022/05/23 02:05:10;;;;;;;9.97;8.00;;;4.90;99.90;4.00;100178;;;;597077;240;24049;-76
2022/05/23 02:07:38;;;;;;;10.23;7.67;;;4.90;99.90;4.00;100174;;;;597683;240;24077;-76
2022/05/23 02:10:16;;;;;;;;;;;;;;;;;;;;;
2022/05/23 02:12:35;;;;;;;10.07;7.77;;;4.90;99.90;4.00;100174;;;;572570;250;24135;-76
2022/05/23 02:15:03;;;;;;;10.43;8.40;;;4.90;99.90;4.10;100182;;;;597323;240;24063;-75
2022/05/23 02:17:34;;;;;;;9.67;8.30;;;4.90;99.90;4.10;100178;;;;597709;240;24045;-76
2022/05/23 02:20:02;;;;;;;11.80;8.47;;;5.00;99.90;4.00;100173;;;;596080;239;24074;-75
2022/05/23 02:22:26;;;;;;;12.03;8.13;;;4.90;99.90;4.00;100178;;;;573906;250;24092;-76
2022/05/23 02:24:54;;;;;;;17.33;8.90;;;4.90;99.90;4.10;100179;;;;597377;240;24114;-76
2022/05/23 02:27:26;;;;;;;10.97;9.03;;;5.00;99.90;4.10;100184;;;;597717;240;25073;-77
2022/05/23 02:29:51;;;;;;;9.17;8.27;;;5.00;99.90;4.10;100177;;;;597213;239;24041;-75
2022/05/23 02:32:22;;;;;;;10.03;7.47;;;5.00;99.90;4.10;100178;;;;597642;240;24049;-75
2022/05/23 02:34:48;;;;;;;10.33;8.00;;;5.00;99.90;4.10;100174;;;;597987;238;24039;-75
2022/05/23 02:37:17;;;;;;;12.83;8.40;;;5.00;99.90;4.20;100173;;;;598697;237;24049;-75
2022/05/23 02:39:48;;;;;;;10.80;8.67;;;5.00;99.90;4.20;100168;;;;597990;240;24037;-76
2022/05/23 02:42:13;;;;;;;10.87;8.33;;;5.10;99.90;4.20;100168;;;;598066;235;24054;-78
2022/05/23 02:44:44;;;;;;;12.30;8.90;;;5.10;99.90;4.20;100176;;;;599093;235;24052;-78
2022/05/23 02:47:12;;;;;;;10.77;8.67;;;5.10;99.90;4.30;100181;;;;598110;239;24029;-76
2022/05/23 02:49:40;;;;;;;10.70;8.63;;;5.10;99.90;4.30;100182;;;;598675;240;24048;-76
2022/05/23 02:52:05;;;;;;;11.77;8.27;;;5.10;99.90;4.30;100178;;;;598633;240;24045;-78
2022/05/23 02:54:32;;;;;;;9.87;7.50;;;5.20;99.90;4.30;100177;;;;598983;235;25095;-75
2022/05/23 02:57:01;;;;;;;9.00;8.03;;;5.20;99.90;4.30;100175;;;;598705;240;24061;-78
2022/05/23 02:59:29;;;;;;;8.67;6.47;;;5.20;99.90;4.30;100176;;;;598929;238;24053;-78
2022/05/23 03:04:47;;;;;;;9.07;6.27;;;5.20;99.90;4.40;100187;;;;598522;240;24054;-78
2022/05/23 03:07:12;;;;;;;8.67;6.33;;;5.30;99.90;4.50;100184;;;;598376;240;24091;-76
2022/05/23 03:09:41;;;;;;;11.00;6.87;;;5.30;99.90;4.50;100180;;;;598430;238;24045;-76
2022/05/23 03:12:13;;;;;;;11.80;6.23;;;5.40;99.90;4.60;100169;;;;597752;240;24085;-78
2022/05/23 03:14:37;;;;;;;9.53;5.87;;;5.40;99.90;4.60;100182;;;;597823;240;24039;-82
2022/05/23 03:17:09;;;;;;;9.83;6.57;;;5.50;99.90;4.70;100183;;;;574129;250;24152;-79
2022/05/23 03:19:35;;;;;;;8.80;5.63;;;5.60;99.90;4.80;100169;;;;598220;240;25074;-79
2022/05/23 03:27:36;;;;;;;8.70;6.20;;;5.80;99.90;5.10;100177;;;;598506;240;24115;-78
2022/05/23 03:30:07;;;;;;;9.63;7.00;;;5.90;99.90;5.40;100171;;;;598290;240;24066;-77
2022/05/23 03:32:34;;;;;;;11.60;6.53;;;6.20;99.90;6.30;100180;;;;598630;240;24076;-82
2022/05/23 03:35:05;;;;;;;12.20;6.87;;;6.90;99.90;7.40;100182;;;;598743;240;24059;-76
2022/05/23 03:37:31;;;;;;;9.53;6.33;;;8.00;99.90;8.50;100190;;;;598938;235;24050;-77
2022/05/23 03:40:00;;;;;;;8.87;6.80;;;9.20;99.90;9.60;100195;;;;598781;240;24057;-79
2022/05/23 03:42:31;;;;;;;8.33;5.90;;;10.40;99.90;10.70;100202;;;;597674;240;24056;-78
2022/05/23 03:44:59;;;;;;;6.10;5.50;;;11.50;99.90;11.70;100201;;;;598510;240;23994;-76
2022/05/23 03:47:24;;;;;;;8.07;6.17;;;12.50;99.90;12.50;100195;;;;593897;238;36405;-76
2022/05/23 03:49:51;;;;;;;6.95;6.25;;;13.30;99.90;13.40;100187;;;;593631;239;45869;-76
2022/05/23 03:52:21;;;;;;;6.87;6.03;;;14.20;99.90;14.10;100195;;;;598823;240;24060;-76
2022/05/23 03:54:52;;;;;;;6.40;5.43;;;15.00;99.90;15.10;100195;;;;598794;240;24061;-75
2022/05/23 03:57:16;;;;;;;7.30;5.77;;;16.00;99.90;15.70;100190;;;;598555;240;24062;-77
2022/05/23 03:59:45;;;;;;;8.30;5.23;;;16.70;99.90;16.20;100198;;;;598135;240;24069;-74
2022/05/23 04:02:12;;;;;;;8.40;5.43;;;17.30;99.90;16.80;100198;;;;584965;244;24075;-77
2022/05/23 04:04:42;;;;;;;6.93;5.90;;;17.90;99.90;17.50;100207;;;;598114;240;24061;-75
2022/05/23 04:07:09;;;;;;;6.30;5.47;;;18.60;99.90;18.10;100204;;;;597632;240;24065;-77
2022/05/23 04:09:37;;;;;;;6.50;5.90;;;19.20;99.90;18.70;100208;;;;597963;235;24034;-76
2022/05/23 04:12:10;;;;;;;7.23;5.63;;;19.80;99.90;19.50;100200;;;;597863;236;23081;-74
2022/05/23 04:14:38;;;;;;;8.37;6.43;;;20.60;99.90;20.20;100201;;;;597446;235;24096;-76
2022/05/23 04:17:07;;;;;;;6.93;6.07;;;21.30;96.90;20.90;100210;;;;597582;240;24049;-76
2022/05/23 04:19:32;;;;;;;6.47;5.87;;;22.10;93.60;21.50;100217;;;;583759;245;24081;-78
2022/05/23 04:22:05;;;;;;;5.70;5.20;;;23.30;86.00;22.10;100212;;;;598628;238;24079;-77
2022/05/23 04:24:33;;;;;;;6.77;6.00;;;23.30;85.20;22.60;100215;;;;597385;240;23084;-76
2022/05/23 04:27:01;;;;;;;6.77;6.07;;;23.90;79.70;22.90;100219;;;;597345;240;23069;-76
2022/05/23 04:29:29;;;;;;;8.63;6.50;;;24.80;73.20;23.50;100213;;;;597150;235;23071;-75
2022/05/23 04:31:57;;;;;;;6.73;6.13;;;24.70;72.90;23.90;100218;;;;597254;240;23060;-76
2022/05/23 04:37:12;;;;;;;6.57;5.97;;;25.80;67.70;25.20;100211;;;;592767;240;24031;-77
2022/05/23 04:39:40;;;;;;;5.83;5.33;;;26.50;65.30;25.90;100214;;;;597408;235;23145;-76
2022/05/23 04:42:08;;;;;;;8.17;5.80;;;27.20;62.50;26.30;100206;;;;597549;240;23049;-76
2022/05/23 04:44:35;;;;;;;6.20;5.70;;;27.60;59.80;26.80;100211;;;;598772;240;24091;-83
2022/05/23 04:49:52;;;;;;;5.53;5.03;;;28.70;57.00;28.10;100219;;;;598667;240;23072;-81
2022/05/23 04:52:22;;;;;;;7.45;5.80;;;29.50;55.20;28.60;100221;;;;598898;235;24155;-81
2022/05/23 04:54:48;;;;;;;6.62;5.80;;;30.00;53.60;29.30;100223;;;;598704;235;23060;-79
2022/05/23 04:57:16;;;;;;;5.62;5.12;;;30.60;52.40;30.00;100229;;;;597937;235;23067;-80
2022/05/23 04:59:47;;;;;;;8.82;6.00;;;31.30;51.10;30.70;100232;;;;600094;238;23042;-82
2022/05/23 05:02:16;;;;;;;5.43;5.03;;;32.50;48.60;31.10;100239;;;;598905;235;23049;-76
2022/05/23 05:04:40;;;;;;;7.18;4.35;;;32.40;48.50;31.60;100235;;;;598401;240;24062;-79
2022/05/23 05:07:11;;;;;;;6.45;5.10;;;32.80;48.00;32.00;100239;;;;598552;235;23063;-77
2022/05/23 05:09:36;;;;;;;5.03;4.62;;;33.40;46.60;32.40;100238;;;;597988;240;23051;-75
2022/05/23 05:12:06;;;;;;;5.62;5.00;;;33.70;46.20;33.10;100236;;;;598271;235;23063;-76
2022/05/23 05:14:36;;;;;;;5.18;4.62;;;34.40;45.70;33.60;100240;;;;597869;240;23060;-77
2022/05/23 05:17:02;;;;;;;5.12;4.65;;;34.80;44.80;33.90;100243;;;;597286;240;23091;-78
2022/05/23 05:19:30;;;;;;;4.85;4.43;;;35.10;44.00;34.40;100256;;;;598309;240;23059;-77
2022/05/23 05:21:57;;;;;;;4.87;4.45;;;35.50;43.70;34.70;100259;;;;598384;240;24049;-77
2022/05/23 05:24:27;;;;;;;4.15;3.85;;;35.80;43.10;35.10;100265;;;;598735;240;23040;-77
2022/05/23 05:26:55;;;;;;;6.22;3.85;;;36.10;42.80;35.50;100265;;;;590922;242;23055;-77
2022/05/23 05:29:23;;;;;;;3.62;3.33;;;36.60;42.00;35.80;100255;;;;593402;242;23046;-78
2022/05/23 05:31:50;;;;;;;5.32;3.50;;;37.00;40.80;36.10;100248;;;;598511;240;23086;-78
2022/05/23 05:34:18;;;;;;;4.85;3.12;;;37.10;40.90;36.40;100250;;;;598063;240;23063;-76
2022/05/23 05:36:50;;;;;;;3.55;3.17;;;37.50;39.70;36.80;100256;;;;597244;240;23121;-77
2022/05/23 05:39:14;;;;;;;4.68;3.47;;;37.80;39.00;37.40;100250;;;;597520;240;23066;-81
2022/05/23 05:41:54;;;;;;;3.83;3.45;;;38.30;38.40;37.80;100254;;;;598799;240;23071;-81
2022/05/23 05:44:23;;;;;;;4.47;4.10;;;38.80;38.40;38.20;100260;;;;598391;240;23040;-84
2022/05/23 05:46:51;;;;;;;4.93;3.72;;;39.10;38.10;38.50;100266;;;;598687;240;23080;-84
2022/05/23 05:49:21;;;;;;;4.15;3.62;;;39.30;37.90;38.90;100257;;;;598581;240;23066;-83
2022/05/23 05:51:49;;;;;;;4.70;4.40;;;39.70;37.40;39.20;100257;;;;598457;240;23040;-84
2022/05/23 05:54:21;;;;;;;4.37;4.10;;;40.10;36.80;39.40;100255;;;;598333;235;23050;-84
2022/05/23 05:56:49;;;;;;;4.57;4.18;;;40.30;36.30;39.80;100260;;;;598597;240;23072;-85
2022/05/23 05:59:18;;;;;;;4.22;3.80;;;41.00;35.10;40.10;100257;;;;597443;235;23052;-78
2022/05/23 06:01:50;;;;;;;6.18;4.32;;;41.30;34.20;40.40;100265;;;;597289;240;23057;-77
2022/05/23 06:04:15;;;;;;;3.47;3.28;;;41.20;34.20;40.50;100264;;;;596813;240;23050;-78
2022/05/23 06:12:15;;;;;;;3.15;2.95;;;41.50;33.50;41.10;100273;;;;598923;240;23055;-77
2022/05/23 06:14:44;;;;;;;2.95;2.70;;;41.90;32.40;41.10;100271;;;;598243;240;23055;-78
2022/05/23 06:17:11;;;;;;;3.83;2.58;;;42.00;31.80;41.00;100278;;;;598079;239;23071;-77
2022/05/23 06:19:43;;;;;;;3.33;3.03;;;41.90;31.80;41.20;100274;;;;597626;235;23048;-76
2022/05/23 06:22:09;;;;;;;2.78;2.42;;;42.00;32.30;41.30;100279;;;;597707;240;23061;-76
2022/05/23 06:24:40;;;;;;;2.90;2.65;;;42.20;31.30;41.70;100278;;;;598440;240;23035;-77
2022/05/23 06:27:06;;;;;;;3.20;3.00;;;42.40;31.60;42.00;100281;;;;597766;240;23059;-79
2022/05/23 06:29:36;;;;;;;2.87;2.67;;;42.70;31.90;42.30;100284;;;;597622;240;23055;-78
2022/05/23 06:32:02;;;;;;;2.90;2.70;;;43.40;31.20;42.80;100298;;;;597196;235;23104;-77
2022/05/23 06:34:30;;;;;;;2.65;2.45;;;43.40;31.10;43.00;100294;;;;597617;240;23056;-77
2022/05/23 06:36:59;;;;;;;6.28;2.87;;;43.70;30.70;43.10;100294;;;;597727;235;23054;-77
2022/05/23 06:39:25;;;;;;;2.83;2.47;;;43.90;30.50;43.40;100298;;;;597550;240;24063;-77
2022/05/23 06:41:54;;;;;;;4.28;2.70;;;44.20;30.00;43.30;100307;;;;597593;240;23040;-77
2022/05/23 06:44:22;;;;;;;3.80;2.50;;;44.10;29.90;43.70;100302;;;;597701;240;23080;-77
2022/05/23 06:46:50;;;;;;;2.80;2.60;;;44.40;29.80;43.70;100304;;;;597432;235;23052;-77
2022/05/23 06:49:19;;;;;;;2.85;2.72;;;44.50;29.80;44.00;100305;;;;597299;240;24092;-77
2022/05/23 06:51:51;;;;;;;2.90;2.47;;;44.70;30.10;44.50;100306;;;;597267;240;23059;-77
2022/05/23 06:54:18;;;;;;;2.30;2.20;;;45.10;30.00;44.90;100309;;;;580455;244;23064;-80
2022/05/23 06:56:49;;;;;;;2.22;2.03;;;45.50;29.20;44.40;100318;;;;598666;239;24102;-77
2022/05/23 06:59:13;;;;;;;2.10;1.83;;;45.20;28.30;44.00;100311;;;;598343;240;23062;-76
2022/05/23 07:01:41;;;;;;;2.20;1.85;;;44.90;28.60;44.40;100316;;;;597686;239;23044;-76
2022/05/23 07:04:10;;;;;;;1.98;1.75;;;45.00;28.70;44.40;100317;;;;598525;240;23052;-79
2022/05/23 07:12:28;;;;;;;2.80;2.00;;;45.80;28.60;45.20;100326;;;;598468;240;24077;-80
2022/05/23 07:14:50;;;;;;;2.22;1.90;;;45.90;28.30;45.60;100322;;;;597809;240;23061;-82
2022/05/23 07:17:18;;;;;;;2.30;1.90;;;46.20;28.00;45.40;100321;;;;598188;240;23046;-80
2022/05/23 07:19:47;;;;;;;1.95;1.85;;;46.20;27.80;45.50;100311;;;;597612;240;23063;-77
2022/05/23 07:22:18;;;;;;;4.97;2.17;;;46.10;28.00;45.70;100315;;;;599422;238;23043;-77
2022/05/23 07:24:44;;;;;;;2.92;2.05;;;46.20;28.10;46.00;100313;;;;599646;240;23087;-79
2022/05/23 07:27:12;;;;;;;1.87;1.77;;;46.40;28.00;46.00;100322;;;;599655;235;23008;-80
2022/05/23 07:29:38;;;;;;;2.35;2.22;;;46.60;27.90;46.40;100321;;;;599731;239;23028;-78
2022/05/23 07:32:11;;;;;;;3.03;2.00;;;46.90;27.50;46.10;100320;;;;599078;240;23066;-77
2022/05/23 07:34:37;;;;;;;2.28;2.08;;;46.90;27.40;45.80;100322;;;;598909;235;23041;-78
2022/05/23 07:37:04;;;;;;;4.37;2.30;;;46.70;27.60;46.20;100313;;;;599240;240;23027;-81
2022/05/23 07:39:34;;;;;;;2.25;2.12;;;46.90;27.90;46.50;100317;;;;599069;240;23071;-77
2022/05/23 07:42:01;;;;;;;2.67;2.17;;;47.20;27.80;46.70;100314;;;;598796;240;23051;-77
2022/05/23 07:44:28;;;;;;;2.60;2.35;;;47.30;27.60;46.80;100307;;;;598635;235;24095;-78
2022/05/23 07:46:56;;;;;;;2.12;1.98;;;47.40;27.00;46.70;100311;;;;598628;240;23055;-77
2022/05/23 07:49:28;;;;;;;2.37;2.00;;;47.40;27.40;46.60;100306;;;;598863;240;23106;-81
2022/05/23 07:51:53;;;;;;;2.00;1.80;;;47.20;27.80;46.70;100308;;;;598731;240;23101;-78
2022/05/23 08:02:40;;;;;;;3.80;2.17;;;47.50;26.80;45.90;100309;;;;598658;240;24088;-80
2022/05/23 08:05:09;;;;;;;2.20;2.00;;;46.90;27.20;46.30;100300;;;;598325;240;23048;-78
2022/05/23 08:07:40;;;;;;;1.77;1.67;;;46.90;27.40;46.80;100304;;;;598266;240;23091;-79
2022/05/23 08:10:04;;;;;;;1.80;1.67;;;47.30;27.40;47.40;100304;;;;597650;240;23089;-76
2022/05/23 08:12:33;;;;;;;2.83;1.90;;;48.20;27.00;47.60;100308;;;;597533;240;23060;-79
2022/05/23 08:15:01;;;;;;;2.67;2.30;;;48.20;26.90;47.80;100311;;;;597387;236;23060;-80
2022/05/23 08:17:29;;;;;;;3.03;1.80;;;48.40;26.80;48.20;100309;;;;597169;240;23048;-77
2022/05/23 08:19:57;;;;;;;3.15;2.10;;;48.80;26.70;47.90;100301;;;;597387;240;23059;-78
2022/05/23 08:22:26;;;;;;;2.30;2.10;;;48.80;26.70;48.20;100300;;;;597213;240;23083;-78
2022/05/23 08:24:53;;;;;;;2.40;2.20;;;48.70;26.60;48.20;100300;;;;597012;240;23102;-78
2022/05/23 08:27:21;;;;;;;2.75;2.30;;;48.80;26.60;48.10;100298;;;;597586;240;23083;-78
2022/05/23 08:29:53;;;;;;;2.47;2.28;;;49.10;26.50;48.50;100304;;;;597215;240;23045;-77
2022/05/23 08:32:18;;;;;;;2.22;2.05;;;49.00;26.40;48.60;100300;;;;596657;240;23074;-76
2022/05/23 08:34:47;;;;;;;3.58;2.65;;;49.30;26.30;48.80;100293;;;;598743;239;23063;-77
2022/05/23 08:37:14;;;;;;;3.12;2.92;;;49.60;26.20;48.30;100299;;;;598194;235;23043;-78
2022/05/23 08:39:42;;;;;;;3.55;3.28;;;49.40;26.50;48.30;100303;;;;597991;240;23059;-78
2022/05/23 08:42:28;;;;;;;3.67;2.85;;;49.40;26.40;48.60;100304;;;;597873;235;23062;-77
2022/05/23 08:45:01;;;;;;;3.58;3.30;;;49.50;26.00;48.40;100301;;;;574531;249;23186;-77
2022/05/23 08:47:31;;;;;;;7.00;3.72;;;49.60;26.00;48.30;100306;;;;597618;240;23040;-77
2022/05/23 08:50:23;;;;;;;4.60;3.95;;;49.50;26.40;48.40;100297;;;;597367;240;23065;-77
2022/05/23 08:53:03;;;;;;;7.05;3.85;;;49.50;26.40;48.70;100296;;;;565393;239;23116;-77
2022/05/23 08:55:58;;;;;;;6.00;3.37;;;49.70;26.50;48.80;100291;;;;595341;240;23063;-77
2022/05/23 08:58:39;;;;;;;10.07;4.15;;;49.80;26.00;48.40;100293;;;;596311;240;23063;-81
2022/05/23 09:01:06;;;;;;;7.10;3.70;;;49.80;26.00;47.80;100284;;;;597210;240;23076;-82
2022/05/23 09:03:35;;;;;;;7.45;3.85;;;49.00;26.20;47.30;100281;;;;597059;240;23048;-84
2022/05/23 09:06:03;;;;;;;4.72;3.55;;;49.00;26.10;46.60;100279;;;;596101;240;23031;-81
2022/05/23 09:08:31;;;;;;;3.80;3.03;;;48.50;26.30;45.40;100277;;;;595359;236;23097;-79
2022/05/23 09:11:05;;;;;;;10.00;3.40;;;46.30;27.40;43.60;100280;;;;596914;240;24085;-79
2022/05/23 09:13:33;;;;;;;7.20;3.25;;;46.20;26.80;42.70;100283;;;;596993;240;23052;-82
2022/05/23 09:16:04;;;;;;;8.18;3.87;;;45.10;27.30;42.20;100272;;;;596471;240;23068;-76
2022/05/23 09:18:28;;;;;;;3.87;3.37;;;44.40;27.80;42.30;100266;;;;596589;240;23044;-81
2022/05/23 09:20:56;;;;;;;6.20;3.55;;;44.00;28.50;42.80;100265;;;;596205;240;23094;-78
2022/05/23 09:23:33;;;;;;;5.53;2.75;;;44.20;28.20;42.50;100263;;;;596869;236;23074;-82
2022/05/23 09:26:01;;;;;;;7.28;3.33;;;44.20;27.80;42.30;100267;;;;596977;235;23041;-79
2022/05/23 09:28:29;;;;;;;6.60;2.87;;;44.00;27.90;41.70;100258;;;;597918;240;23036;-78
2022/05/23 09:30:59;;;;;;;7.55;2.62;;;43.50;28.10;41.90;100262;;;;597534;235;23102;-76
2022/05/23 09:33:33;;;;;;;2.45;2.25;;;43.60;28.10;41.70;100272;;;;597513;240;23121;-77
2022/05/23 09:36:10;;;;;;;6.25;2.78;;;43.40;28.20;41.50;100271;;;;596816;240;23048;-79
2022/05/23 09:38:55;;;;;;;5.03;3.10;;;43.30;28.50;41.60;100273;;;;595937;240;23051;-77
2022/05/23 09:49:35;;;;;;;3.78;3.05;;;43.60;28.20;41.40;100254;;;;595556;240;24098;-77
2022/05/23 09:52:34;;;;;;;11.23;3.47;;;43.60;27.80;40.40;100261;;;;596316;240;23055;-80
2022/05/23 09:55:01;;;;;;;8.73;3.12;;;42.80;28.10;40.00;100257;;;;597541;240;23065;-80
2022/05/23 09:57:40;;;;;;;34.85;5.22;;;42.20;28.30;39.90;100254;;;;596898;239;24095;-80
2022/05/23 10:00:17;;;;;;;8.65;3.65;;;42.10;28.60;40.00;100252;;;;597676;240;25224;-85
2022/05/23 10:03:02;;;;;;;8.38;2.90;;;42.00;28.30;39.60;100248;;;;596611;240;23067;-83
2022/05/23 10:05:33;;;;;;;3.85;2.92;;;41.90;28.10;39.60;100250;;;;592139;240;35018;-82
2022/05/23 10:08:04;;;;;;;3.35;3.00;;;41.90;28.60;38.70;100257;;;;596901;235;23048;-78
2022/05/23 10:10:35;;;;;;;5.10;3.25;;;41.10;29.20;38.40;100249;;;;597267;239;24090;-78
2022/05/23 10:13:23;;;;;;;7.22;2.83;;;40.60;29.00;37.90;100246;;;;597009;240;23048;-77
2022/05/23 10:15:58;;;;;;;6.45;3.00;;;40.00;29.40;37.40;100256;;;;596827;240;23054;-78
2022/05/23 10:18:32;;;;;;;5.50;2.72;;;38.80;30.00;36.40;100243;;;;597163;240;23099;-77
2022/05/23 10:21:02;;;;;;;4.75;2.80;;;38.70;30.00;35.60;100241;;;;596639;240;23040;-76
2022/05/23 10:23:30;;;;;;;8.77;2.50;;;37.80;31.20;35.40;100254;;;;596566;235;23040;-76
2022/05/23 10:26:19;;;;;;;3.55;2.58;;;37.30;31.10;34.90;100240;;;;596964;240;23068;-77
2022/05/23 10:29:11;;;;;;;6.93;2.35;;;36.80;31.80;34.20;100236;;;;591497;243;23054;-78
2022/05/23 10:31:48;;;;;;;5.80;2.20;;;36.00;32.20;33.00;100235;;;;586807;240;24062;-77
2022/05/23 10:34:40;;;;;;;4.53;2.53;;;35.00;33.10;31.30;100242;;;;596454;240;23055;-78
2022/05/23 10:37:08;;;;;;;2.58;2.15;;;33.40;34.30;29.80;100244;;;;591306;243;23050;-80
2022/05/23 10:42:49;;;;;;;6.72;2.83;;;30.10;38.40;27.20;100235;;;;568090;253;24102;-77
2022/05/23 10:45:32;;;;;;;3.37;2.57;;;28.40;40.60;25.60;100232;;;;587108;242;23078;-77
2022/05/23 10:48:33;;;;;;;10.23;2.60;;;26.60;42.50;24.20;100214;;;;589822;241;24033;-78
2022/05/23 10:51:43;;;;;;;5.20;2.30;;;25.10;44.80;23.10;100216;;;;589731;243;24069;-83
2022/05/23 10:54:41;;;;;;;5.07;2.17;;;23.80;46.40;22.30;100217;;;;559264;255;24202;-83
2022/05/23 10:57:31;;;;;;;4.83;2.00;;;22.80;49.00;21.50;100209;;;;572589;249;24093;-80
2022/05/23 11:00:08;;;;;;;3.23;2.40;;;21.10;53.20;20.60;100208;;;;585282;242;24068;-79
2022/05/23 11:02:44;;;;;;;7.33;2.47;;;21.10;52.40;20.10;100190;;;;590043;243;24045;-78
2022/05/23 11:05:27;;;;;;;7.57;3.20;;;20.50;53.90;19.50;100205;;;;590045;242;24059;-78
2022/05/23 11:08:23;;;;;;;4.57;2.07;;;20.00;55.00;18.80;100189;;;;590040;243;24061;-77
2022/05/23 11:10:52;;;;;;;7.70;2.57;;;19.40;55.90;18.30;100194;;;;589684;243;24051;-79
2022/05/23 11:13:42;;;;;;;5.57;3.10;;;18.90;57.30;17.90;100189;;;;589996;243;24076;-81
2022/05/23 11:16:34;;;;;;;5.73;2.70;;;18.40;58.60;17.60;100188;;;;589423;243;24037;-76
2022/05/23 11:19:26;;;;;;;5.73;3.13;;;18.10;59.80;17.20;100176;;;;589189;243;24073;-76
2022/05/23 11:22:02;;;;;;;3.93;2.93;;;17.80;60.40;16.80;100172;;;;590107;242;24110;-81
2022/05/23 11:24:40;;;;;;;5.13;2.50;;;17.40;61.40;16.60;100175;;;;585723;243;24029;-75
2022/05/23 11:35:48;;;;;;;5.53;3.10;;;16.70;64.80;16.00;100166;;;;591806;243;24055;-78
2022/05/23 11:38:12;;;;;;;5.20;3.30;;;16.50;66.00;15.90;100173;;;;591347;242;24053;-84
2022/05/23 11:40:40;;;;;;;6.80;3.53;;;16.50;66.80;15.80;100162;;;;597230;240;24089;-80
2022/05/23 11:43:10;;;;;;;7.43;2.50;;;16.40;66.20;15.70;100164;;;;597207;240;24079;-84
2022/05/23 11:48:36;;;;;;;11.23;2.50;;;16.30;66.90;15.60;100155;;;;597059;240;24089;-81
2022/05/23 11:51:21;;;;;;;4.77;2.30;;;16.20;67.40;15.60;100154;;;;596605;240;24015;-83
2022/05/23 11:54:03;;;;;;;6.47;2.23;;;16.10;67.50;15.50;100152;;;;596459;240;24084;-82
2022/05/23 11:56:51;;;;;;;5.07;2.33;;;16.10;68.10;15.40;100149;;;;596460;235;24106;-82
2022/05/23 11:59:24;;;;;;;9.30;2.73;;;16.00;68.00;15.40;100144;;;;596019;240;24038;-85
2022/05/23 12:02:11;;;;;;;5.70;2.30;;;16.00;68.80;15.40;100147;;;;596945;240;24035;-80
2022/05/23 12:04:44;;;;;;;9.47;2.30;;;16.00;69.60;15.40;100150;;;;596968;240;24042;-76
2022/05/23 12:07:41;;;;;;;4.97;3.00;;;16.00;69.50;15.40;100141;;;;597068;234;24042;-76
2022/05/23 12:10:22;;;;;;;7.20;3.03;;;16.00;69.40;15.40;100142;;;;598293;238;24085;-75
2022/05/23 12:12:52;;;;;;;4.67;2.50;;;16.00;70.00;15.40;100146;;;;596792;240;24115;-76
2022/05/23 12:15:48;;;;;;;4.37;2.50;;;16.00;70.50;15.40;100148;;;;596943;239;24030;-76
2022/05/23 12:18:13;;;;;;;4.10;2.63;;;16.00;70.70;15.30;100153;;;;596943;239;24066;-76
2022/05/23 12:20:47;;;;;;;3.80;2.20;;;15.90;70.60;15.30;100143;;;;597352;240;24045;-76
2022/05/23 12:23:17;;;;;;;5.93;2.53;;;15.90;70.70;15.20;100135;;;;596999;240;24113;-75
2022/05/23 12:25:45;;;;;;;11.57;2.13;;;15.80;71.50;15.20;100137;;;;595712;240;24040;-76
2022/05/23 12:28:20;;;;;;;2.83;1.87;;;15.80;71.80;15.30;100135;;;;593770;240;24050;-77
2022/05/23 12:30:44;;;;;;;6.83;2.13;;;15.80;71.80;15.30;100125;;;;596645;240;24097;-76
2022/05/23 12:33:21;;;;;;;8.50;2.53;;;15.90;71.30;15.30;100127;;;;595239;240;24035;-76
2022/05/23 12:35:48;;;;;;;8.43;2.20;;;15.90;71.40;15.20;100125;;;;597030;239;24054;-76
2022/05/23 12:38:22;;;;;;;3.80;2.30;;;15.80;71.40;15.20;100118;;;;596807;240;24030;-76